UAE903 OMDB-OJAI
Flight info
| Callsign | UAE903 |
|---|---|
| Flight time | N/A |
| Altitude | 40000 |
| Route | SENPA N571 ALPOB L768 AAR V45 TRF R652 OBROD Q163 GENEX L53 ELOXI |
| Aircraft | A388/J-SADE2E3FGHIJ3J4J5M1RWXY/LB1D1 |
Departure
| Time | N/A |
|---|---|
| Airport | Dubai International Airport (OMDB) |
Arrival
| Time | 2026-05-03 22:57 |
|---|---|
| Airport | Queen Alia International Airport (OJAI) |
| Time | Latitude | Longitude | Altitude | Speed | Heading |
|---|---|---|---|---|---|
| 2026-05-03 20:15 | 25.57493 | 53.56696 | 34496 ft | 443 kts | 284° |
| 2026-05-03 20:15 | 25.58270 | 53.53429 | 34919 ft | 444 kts | 284° |
| 2026-05-03 20:15 | 25.59067 | 53.50078 | 35444 ft | 444 kts | 284° |
| 2026-05-03 20:15 | 25.59849 | 53.46784 | 36003 ft | 442 kts | 284° |
| 2026-05-03 20:16 | 25.60621 | 53.43535 | 36502 ft | 441 kts | 284° |
| 2026-05-03 20:16 | 25.61400 | 53.40252 | 36937 ft | 442 kts | 284° |
| 2026-05-03 20:16 | 25.62180 | 53.36955 | 37438 ft | 440 kts | 284° |
| 2026-05-03 20:16 | 25.62950 | 53.33692 | 37951 ft | 438 kts | 284° |
| 2026-05-03 20:17 | 25.63720 | 53.30426 | 38443 ft | 436 kts | 284° |
| 2026-05-03 20:17 | 25.64483 | 53.27186 | 38903 ft | 434 kts | 284° |
| 2026-05-03 20:17 | 25.65242 | 53.23963 | 39382 ft | 432 kts | 284° |
| 2026-05-03 20:17 | 25.66002 | 53.20732 | 39732 ft | 433 kts | 284° |
| 2026-05-03 20:18 | 25.66754 | 53.17527 | 39843 ft | 439 kts | 284° |
| 2026-05-03 20:18 | 25.68286 | 53.10992 | 39829 ft | 435 kts | 284° |
| 2026-05-03 20:19 | 25.69857 | 53.04499 | 39831 ft | 438 kts | 287° |
| 2026-05-03 20:19 | 25.72102 | 52.98204 | 39835 ft | 440 kts | 294° |
| 2026-05-03 20:20 | 25.74942 | 52.92177 | 39834 ft | 441 kts | 295° |
| 2026-05-03 20:20 | 25.77781 | 52.86152 | 39836 ft | 440 kts | 295° |
| 2026-05-03 20:21 | 25.80596 | 52.80175 | 39836 ft | 440 kts | 295° |
| 2026-05-03 20:21 | 25.83431 | 52.74154 | 39833 ft | 440 kts | 295° |
| 2026-05-03 20:22 | 25.86263 | 52.68130 | 39834 ft | 440 kts | 295° |
| 2026-05-03 20:22 | 25.89085 | 52.62122 | 39829 ft | 440 kts | 295° |
| 2026-05-03 20:23 | 25.91850 | 52.56069 | 39831 ft | 439 kts | 294° |
| 2026-05-03 20:23 | 25.94494 | 52.50008 | 39834 ft | 439 kts | 294° |
| 2026-05-03 20:24 | 25.97169 | 52.43907 | 39834 ft | 439 kts | 294° |
| 2026-05-03 20:24 | 25.99854 | 52.37811 | 39835 ft | 439 kts | 294° |
| 2026-05-03 20:25 | 26.02572 | 52.31733 | 39840 ft | 438 kts | 294° |
| 2026-05-03 20:25 | 26.05265 | 52.25712 | 39829 ft | 438 kts | 294° |
| 2026-05-03 20:26 | 26.07971 | 52.19647 | 39830 ft | 438 kts | 294° |
| 2026-05-03 20:26 | 26.10665 | 52.13591 | 39823 ft | 438 kts | 294° |
| 2026-05-03 20:27 | 26.13362 | 52.07514 | 39827 ft | 438 kts | 294° |
| 2026-05-03 20:27 | 26.16057 | 52.01438 | 39830 ft | 438 kts | 294° |
| 2026-05-03 20:28 | 26.18769 | 51.95361 | 39825 ft | 438 kts | 294° |
| 2026-05-03 20:28 | 26.21474 | 51.89334 | 39831 ft | 438 kts | 294° |
| 2026-05-03 20:29 | 26.24155 | 51.83237 | 39831 ft | 438 kts | 294° |
| 2026-05-03 20:29 | 26.26840 | 51.77147 | 39837 ft | 438 kts | 294° |
| 2026-05-03 20:30 | 26.29549 | 51.71084 | 39833 ft | 438 kts | 294° |
| 2026-05-03 20:30 | 26.32250 | 51.65035 | 39839 ft | 438 kts | 294° |
| 2026-05-03 20:31 | 26.34956 | 51.58959 | 39839 ft | 437 kts | 294° |
| 2026-05-03 20:31 | 26.37610 | 51.52877 | 39830 ft | 436 kts | 291° |
| 2026-05-03 20:32 | 26.39716 | 51.46551 | 39831 ft | 435 kts | 288° |
| 2026-05-03 20:32 | 26.41748 | 51.40203 | 39834 ft | 434 kts | 288° |
| 2026-05-03 20:33 | 26.43767 | 51.33910 | 39837 ft | 433 kts | 287° |
| 2026-05-03 20:33 | 26.45791 | 51.27573 | 39832 ft | 433 kts | 287° |
| 2026-05-03 20:34 | 26.47814 | 51.21240 | 39834 ft | 433 kts | 287° |
| 2026-05-03 20:34 | 26.49490 | 51.15983 | 39827 ft | 433 kts | 287° |
| 2026-05-03 20:35 | 26.51832 | 51.08625 | 39838 ft | 433 kts | 287° |
| 2026-05-03 20:35 | 26.53840 | 51.02288 | 39831 ft | 433 kts | 287° |
| 2026-05-03 20:36 | 26.55845 | 50.95964 | 39831 ft | 433 kts | 287° |
| 2026-05-03 20:36 | 26.57514 | 50.90696 | 39833 ft | 433 kts | 287° |
| 2026-05-03 20:37 | 26.59490 | 50.84338 | 39831 ft | 433 kts | 287° |
| 2026-05-03 20:37 | 26.61456 | 50.77974 | 39833 ft | 433 kts | 287° |
| 2026-05-03 20:38 | 26.63425 | 50.71610 | 39833 ft | 433 kts | 287° |
| 2026-05-03 20:38 | 26.65358 | 50.65283 | 39835 ft | 433 kts | 286° |
| 2026-05-03 20:39 | 26.67243 | 50.58887 | 39832 ft | 433 kts | 286° |
| 2026-05-03 20:39 | 26.69129 | 50.52488 | 39837 ft | 433 kts | 286° |
| 2026-05-03 20:40 | 26.70983 | 50.46131 | 39832 ft | 433 kts | 284° |
| 2026-05-03 20:40 | 26.72629 | 50.39661 | 39835 ft | 432 kts | 283° |
| 2026-05-03 20:41 | 26.74247 | 50.33200 | 39835 ft | 432 kts | 284° |
| 2026-05-03 20:41 | 26.75902 | 50.26728 | 39832 ft | 432 kts | 284° |
| 2026-05-03 20:42 | 26.77777 | 50.20317 | 39833 ft | 433 kts | 287° |
| 2026-05-03 20:42 | 26.79720 | 50.13981 | 39825 ft | 433 kts | 286° |
| 2026-05-03 20:43 | 26.81640 | 50.07585 | 39834 ft | 433 kts | 286° |
| 2026-05-03 20:43 | 26.83543 | 50.01181 | 39834 ft | 433 kts | 286° |
| 2026-05-03 20:44 | 26.85442 | 49.94777 | 39831 ft | 433 kts | 285° |
| 2026-05-03 20:44 | 26.87324 | 49.88423 | 39828 ft | 433 kts | 285° |
| 2026-05-03 20:45 | 26.89221 | 49.82011 | 39830 ft | 433 kts | 285° |
| 2026-05-03 20:45 | 26.91112 | 49.75600 | 39836 ft | 433 kts | 285° |
| 2026-05-03 20:46 | 26.92996 | 49.69204 | 39833 ft | 433 kts | 285° |
| 2026-05-03 20:46 | 26.94879 | 49.62797 | 39835 ft | 432 kts | 285° |
| 2026-05-03 20:47 | 26.96748 | 49.56424 | 39844 ft | 432 kts | 285° |
| 2026-05-03 20:47 | 26.98618 | 49.50041 | 39841 ft | 432 kts | 285° |
| 2026-05-03 20:48 | 27.00522 | 49.43657 | 39837 ft | 433 kts | 288° |
| 2026-05-03 20:48 | 27.03063 | 49.37500 | 39843 ft | 436 kts | 295° |
| 2026-05-03 20:49 | 27.06046 | 49.31622 | 39841 ft | 436 kts | 295° |
| 2026-05-03 20:49 | 27.09014 | 49.25701 | 39847 ft | 436 kts | 295° |
| 2026-05-03 20:50 | 27.11989 | 49.19764 | 39844 ft | 436 kts | 295° |
| 2026-05-03 20:50 | 27.14968 | 49.13827 | 39845 ft | 436 kts | 295° |
| 2026-05-03 20:51 | 27.17945 | 49.07888 | 39844 ft | 436 kts | 295° |
| 2026-05-03 20:51 | 27.20895 | 49.01989 | 39850 ft | 436 kts | 295° |
| 2026-05-03 20:52 | 27.23867 | 48.96043 | 39842 ft | 436 kts | 295° |
| 2026-05-03 20:52 | 27.26835 | 48.90087 | 39852 ft | 437 kts | 295° |
| 2026-05-03 20:53 | 27.29800 | 48.84127 | 39855 ft | 437 kts | 295° |
| 2026-05-03 20:53 | 27.32742 | 48.78212 | 39861 ft | 436 kts | 295° |
| 2026-05-03 20:54 | 27.35703 | 48.72250 | 39860 ft | 436 kts | 295° |
| 2026-05-03 20:54 | 27.40132 | 48.63313 | 39863 ft | 436 kts | 294° |
| 2026-05-03 20:55 | 27.43084 | 48.57349 | 39857 ft | 436 kts | 294° |
| 2026-05-03 20:55 | 27.46010 | 48.51427 | 39860 ft | 436 kts | 294° |
| 2026-05-03 20:56 | 27.48951 | 48.45463 | 39864 ft | 436 kts | 294° |
| 2026-05-03 20:56 | 27.51884 | 48.39511 | 39862 ft | 435 kts | 294° |
| 2026-05-03 20:57 | 27.54804 | 48.33578 | 39869 ft | 435 kts | 294° |
| 2026-05-03 20:57 | 27.57747 | 48.27585 | 39867 ft | 434 kts | 294° |
| 2026-05-03 20:58 | 27.60656 | 48.21671 | 39866 ft | 434 kts | 294° |
| 2026-05-03 20:58 | 27.63586 | 48.15709 | 39862 ft | 434 kts | 294° |
| 2026-05-03 20:59 | 27.66513 | 48.09737 | 39859 ft | 434 kts | 294° |
| 2026-05-03 20:59 | 27.69425 | 48.03792 | 39858 ft | 434 kts | 294° |
| 2026-05-03 21:00 | 27.71844 | 47.98837 | 39859 ft | 434 kts | 294° |
| 2026-05-03 21:00 | 27.75226 | 47.91895 | 39880 ft | 434 kts | 294° |
| 2026-05-03 21:01 | 27.78129 | 47.85923 | 39878 ft | 434 kts | 294° |
| 2026-05-03 21:01 | 27.81029 | 47.79951 | 39877 ft | 433 kts | 294° |
| 2026-05-03 21:02 | 27.83827 | 47.73986 | 39876 ft | 431 kts | 290° |
| 2026-05-03 21:02 | 27.85984 | 47.67708 | 39861 ft | 427 kts | 285° |
| 2026-05-03 21:03 | 27.87952 | 47.61365 | 39861 ft | 428 kts | 285° |
| 2026-05-03 21:03 | 27.89930 | 47.55017 | 39857 ft | 428 kts | 285° |
| 2026-05-03 21:04 | 27.91886 | 47.48705 | 39866 ft | 429 kts | 285° |
| 2026-05-03 21:04 | 27.93853 | 47.42336 | 39881 ft | 429 kts | 285° |
| 2026-05-03 21:05 | 27.95813 | 47.35970 | 39895 ft | 430 kts | 285° |
| 2026-05-03 21:05 | 27.97782 | 47.29581 | 39899 ft | 430 kts | 285° |
| 2026-05-03 21:06 | 27.99750 | 47.23183 | 39902 ft | 430 kts | 285° |
| 2026-05-03 21:06 | 28.01701 | 47.16826 | 39923 ft | 430 kts | 284° |
| 2026-05-03 21:07 | 28.03657 | 47.10435 | 39923 ft | 429 kts | 284° |
| 2026-05-03 21:07 | 28.05607 | 47.04054 | 39909 ft | 428 kts | 284° |
| 2026-05-03 21:08 | 28.07548 | 46.97685 | 39906 ft | 427 kts | 284° |
| 2026-05-03 21:08 | 28.09468 | 46.91378 | 39910 ft | 426 kts | 284° |
| 2026-05-03 21:09 | 28.11429 | 46.85042 | 39904 ft | 427 kts | 285° |
| 2026-05-03 21:09 | 28.13550 | 46.78777 | 39900 ft | 427 kts | 285° |
| 2026-05-03 21:10 | 28.15657 | 46.72534 | 39903 ft | 426 kts | 285° |
| 2026-05-03 21:10 | 28.17759 | 46.66223 | 39899 ft | 425 kts | 285° |
| 2026-05-03 21:11 | 28.19843 | 46.59949 | 39895 ft | 425 kts | 285° |
| 2026-05-03 21:11 | 28.21920 | 46.53678 | 39889 ft | 425 kts | 285° |
| 2026-05-03 21:12 | 28.23995 | 46.47402 | 39890 ft | 425 kts | 285° |
| 2026-05-03 21:12 | 28.26053 | 46.41168 | 39894 ft | 425 kts | 285° |
| 2026-05-03 21:13 | 28.28133 | 46.34859 | 39908 ft | 426 kts | 285° |
| 2026-05-03 21:13 | 28.30207 | 46.28554 | 39918 ft | 427 kts | 285° |
| 2026-05-03 21:14 | 28.32271 | 46.22268 | 39919 ft | 427 kts | 285° |
| 2026-05-03 21:14 | 28.34345 | 46.15939 | 39920 ft | 428 kts | 285° |
| 2026-05-03 21:15 | 28.36437 | 46.09609 | 39924 ft | 429 kts | 286° |
| 2026-05-03 21:15 | 28.38785 | 46.03363 | 39923 ft | 430 kts | 288° |
| 2026-05-03 21:16 | 28.41154 | 45.97123 | 39923 ft | 430 kts | 287° |
| 2026-05-03 21:16 | 28.43486 | 45.90870 | 39909 ft | 430 kts | 287° |
| 2026-05-03 21:17 | 28.45412 | 45.85676 | 39911 ft | 429 kts | 287° |
| 2026-05-03 21:17 | 28.48105 | 45.78396 | 39908 ft | 429 kts | 287° |
| 2026-05-03 21:18 | 28.50413 | 45.72148 | 39905 ft | 428 kts | 286° |
| 2026-05-03 21:18 | 28.52716 | 45.65903 | 39903 ft | 428 kts | 286° |
| 2026-05-03 21:19 | 28.55008 | 45.59675 | 39907 ft | 428 kts | 286° |
| 2026-05-03 21:19 | 28.57307 | 45.53418 | 39899 ft | 428 kts | 286° |
| 2026-05-03 21:20 | 28.59583 | 45.47220 | 39905 ft | 427 kts | 286° |
| 2026-05-03 21:20 | 28.61879 | 45.40960 | 39905 ft | 427 kts | 286° |
| 2026-05-03 21:21 | 28.64164 | 45.34715 | 39904 ft | 427 kts | 286° |
| 2026-05-03 21:21 | 28.66432 | 45.28498 | 39904 ft | 427 kts | 285° |
| 2026-05-03 21:22 | 28.68709 | 45.22249 | 39910 ft | 427 kts | 285° |
| 2026-05-03 21:22 | 28.70984 | 45.15999 | 39902 ft | 427 kts | 285° |
| 2026-05-03 21:23 | 28.73257 | 45.09745 | 39908 ft | 427 kts | 285° |
| 2026-05-03 21:23 | 28.75526 | 45.03488 | 39909 ft | 427 kts | 285° |
| 2026-05-03 21:24 | 28.77792 | 44.97232 | 39908 ft | 427 kts | 285° |
| 2026-05-03 21:24 | 28.80056 | 44.90978 | 39914 ft | 426 kts | 285° |
| 2026-05-03 21:25 | 28.82312 | 44.84722 | 39912 ft | 426 kts | 285° |
| 2026-05-03 21:25 | 28.84572 | 44.78466 | 39913 ft | 427 kts | 286° |
| 2026-05-03 21:26 | 28.87368 | 44.72410 | 39912 ft | 436 kts | 294° |
| 2026-05-03 21:26 | 28.90849 | 44.66678 | 39912 ft | 440 kts | 296° |
| 2026-05-03 21:27 | 28.94368 | 44.60961 | 39912 ft | 440 kts | 296° |
| 2026-05-03 21:27 | 28.97859 | 44.55282 | 39918 ft | 440 kts | 296° |
| 2026-05-03 21:28 | 29.01382 | 44.49557 | 39913 ft | 440 kts | 296° |
| 2026-05-03 21:28 | 29.04902 | 44.43832 | 39911 ft | 440 kts | 296° |
| 2026-05-03 21:29 | 29.08416 | 44.38103 | 39911 ft | 440 kts | 296° |
| 2026-05-03 21:29 | 29.11930 | 44.32370 | 39908 ft | 440 kts | 296° |
| 2026-05-03 21:30 | 29.15440 | 44.26634 | 39908 ft | 440 kts | 296° |
| 2026-05-03 21:30 | 29.18945 | 44.20895 | 39903 ft | 440 kts | 296° |
| 2026-05-03 21:31 | 29.22458 | 44.15138 | 39902 ft | 440 kts | 295° |
| 2026-05-03 21:31 | 29.25950 | 44.09406 | 39907 ft | 440 kts | 295° |
| 2026-05-03 21:32 | 29.29431 | 44.03690 | 39903 ft | 439 kts | 295° |
| 2026-05-03 21:32 | 29.32926 | 43.97936 | 39903 ft | 440 kts | 295° |
| 2026-05-03 21:33 | 29.36418 | 43.92175 | 39908 ft | 440 kts | 295° |
| 2026-05-03 21:33 | 29.39912 | 43.86411 | 39908 ft | 440 kts | 295° |
| 2026-05-03 21:34 | 29.43403 | 43.80643 | 39907 ft | 440 kts | 295° |
| 2026-05-03 21:34 | 29.46889 | 43.74875 | 39921 ft | 440 kts | 295° |
| 2026-05-03 21:35 | 29.50380 | 43.69090 | 39918 ft | 439 kts | 294° |
| 2026-05-03 21:35 | 29.53837 | 43.63348 | 39917 ft | 439 kts | 294° |
| 2026-05-03 21:36 | 29.57312 | 43.57578 | 39917 ft | 439 kts | 294° |
| 2026-05-03 21:36 | 29.60787 | 43.51801 | 39917 ft | 439 kts | 294° |
| 2026-05-03 21:37 | 29.64204 | 43.45983 | 39916 ft | 437 kts | 292° |
| 2026-05-03 21:37 | 29.67470 | 43.40099 | 39915 ft | 436 kts | 292° |
| 2026-05-03 21:38 | 29.70741 | 43.34233 | 39914 ft | 436 kts | 292° |
| 2026-05-03 21:38 | 29.74030 | 43.28366 | 39916 ft | 436 kts | 292° |
| 2026-05-03 21:39 | 29.77315 | 43.22494 | 39911 ft | 435 kts | 292° |
| 2026-05-03 21:39 | 29.80587 | 43.16634 | 39906 ft | 435 kts | 292° |
| 2026-05-03 21:40 | 29.83859 | 43.10765 | 39910 ft | 435 kts | 292° |
| 2026-05-03 21:40 | 29.87124 | 43.04907 | 39905 ft | 434 kts | 292° |
| 2026-05-03 21:41 | 29.90367 | 42.99078 | 39906 ft | 434 kts | 292° |
| 2026-05-03 21:41 | 29.93618 | 42.93224 | 39910 ft | 434 kts | 292° |
| 2026-05-03 21:42 | 29.96869 | 42.87362 | 39917 ft | 433 kts | 292° |
| 2026-05-03 21:42 | 30.00109 | 42.81513 | 39914 ft | 432 kts | 292° |
| 2026-05-03 21:43 | 30.03340 | 42.75673 | 39921 ft | 431 kts | 291° |
| 2026-05-03 21:43 | 30.06560 | 42.69837 | 39917 ft | 430 kts | 291° |
| 2026-05-03 21:44 | 30.09234 | 42.64991 | 39923 ft | 430 kts | 291° |
| 2026-05-03 21:44 | 30.12965 | 42.58219 | 39918 ft | 429 kts | 291° |
| 2026-05-03 21:45 | 30.15617 | 42.53399 | 39925 ft | 427 kts | 291° |
| 2026-05-03 21:45 | 30.18797 | 42.47598 | 39917 ft | 427 kts | 291° |
| 2026-05-03 21:46 | 30.21981 | 42.41789 | 39915 ft | 426 kts | 291° |
| 2026-05-03 21:46 | 30.25138 | 42.36023 | 39910 ft | 425 kts | 291° |
| 2026-05-03 21:47 | 30.28303 | 42.30240 | 39905 ft | 425 kts | 291° |
| 2026-05-03 21:47 | 30.31455 | 42.24465 | 39902 ft | 424 kts | 291° |
| 2026-05-03 21:48 | 30.34608 | 42.18687 | 39899 ft | 424 kts | 291° |
| 2026-05-03 21:48 | 30.37752 | 42.12911 | 39899 ft | 424 kts | 291° |
| 2026-05-03 21:49 | 30.40896 | 42.07132 | 39898 ft | 424 kts | 291° |
| 2026-05-03 21:49 | 30.44037 | 42.01344 | 39899 ft | 424 kts | 291° |
| 2026-05-03 21:50 | 30.47176 | 41.95549 | 39909 ft | 424 kts | 291° |
| 2026-05-03 21:50 | 30.50318 | 41.89744 | 39911 ft | 425 kts | 291° |
| 2026-05-03 21:51 | 30.53459 | 41.83934 | 39911 ft | 425 kts | 291° |
| 2026-05-03 21:51 | 30.56583 | 41.78142 | 39921 ft | 426 kts | 290° |
| 2026-05-03 21:52 | 30.59724 | 41.72311 | 39925 ft | 425 kts | 291° |
| 2026-05-03 21:52 | 30.62855 | 41.66497 | 39922 ft | 425 kts | 290° |
| 2026-05-03 21:53 | 30.65986 | 41.60671 | 39911 ft | 425 kts | 290° |
| 2026-05-03 21:53 | 30.69115 | 41.54839 | 39913 ft | 425 kts | 290° |
| 2026-05-03 21:54 | 30.72241 | 41.49005 | 39920 ft | 425 kts | 290° |
| 2026-05-03 21:54 | 30.75371 | 41.43154 | 39915 ft | 425 kts | 290° |
| 2026-05-03 21:55 | 30.78496 | 41.37303 | 39918 ft | 426 kts | 290° |
| 2026-05-03 21:55 | 30.81614 | 41.31452 | 39915 ft | 425 kts | 290° |
| 2026-05-03 21:56 | 30.84710 | 41.25633 | 39917 ft | 425 kts | 290° |
| 2026-05-03 21:56 | 30.87846 | 41.19742 | 39918 ft | 425 kts | 290° |
| 2026-05-03 21:57 | 30.90748 | 41.13805 | 39920 ft | 417 kts | 285° |
| 2026-05-03 21:57 | 30.92974 | 41.07697 | 39917 ft | 410 kts | 281° |
| 2026-05-03 21:58 | 30.95059 | 41.01511 | 39916 ft | 410 kts | 281° |
| 2026-05-03 21:58 | 30.97155 | 40.95326 | 39908 ft | 410 kts | 281° |
| 2026-05-03 21:59 | 30.99238 | 40.89126 | 39909 ft | 410 kts | 281° |
| 2026-05-03 21:59 | 31.01318 | 40.82928 | 39918 ft | 411 kts | 281° |
| 2026-05-03 22:00 | 31.03400 | 40.76708 | 39914 ft | 412 kts | 281° |
| 2026-05-03 22:00 | 31.05468 | 40.70518 | 39920 ft | 412 kts | 281° |
| 2026-05-03 22:01 | 31.07550 | 40.64283 | 39929 ft | 412 kts | 281° |
| 2026-05-03 22:01 | 31.09628 | 40.58042 | 39933 ft | 412 kts | 281° |
| 2026-05-03 22:02 | 31.11702 | 40.51799 | 39928 ft | 412 kts | 281° |
| 2026-05-03 22:02 | 31.13768 | 40.45568 | 39936 ft | 412 kts | 281° |
| 2026-05-03 22:03 | 31.15823 | 40.39364 | 39938 ft | 412 kts | 281° |
| 2026-05-03 22:03 | 31.17884 | 40.33127 | 39931 ft | 412 kts | 281° |
| 2026-05-03 22:04 | 31.19943 | 40.26885 | 39939 ft | 412 kts | 281° |
| 2026-05-03 22:04 | 31.21997 | 40.20644 | 39942 ft | 412 kts | 281° |
| 2026-05-03 22:05 | 31.24053 | 40.14390 | 39954 ft | 412 kts | 281° |
| 2026-05-03 22:05 | 31.26106 | 40.08135 | 39950 ft | 412 kts | 281° |
| 2026-05-03 22:06 | 31.28154 | 40.01875 | 39947 ft | 412 kts | 281° |
| 2026-05-03 22:06 | 31.30201 | 39.95605 | 39941 ft | 413 kts | 280° |
| 2026-05-03 22:07 | 31.32241 | 39.89344 | 39949 ft | 412 kts | 280° |
| 2026-05-03 22:07 | 31.34281 | 39.83067 | 39953 ft | 413 kts | 280° |
| 2026-05-03 22:08 | 31.36306 | 39.76830 | 39955 ft | 413 kts | 280° |
| 2026-05-03 22:08 | 31.38345 | 39.70541 | 39980 ft | 413 kts | 280° |
| 2026-05-03 22:09 | 31.40381 | 39.64243 | 39968 ft | 413 kts | 280° |
| 2026-05-03 22:10 | 31.43431 | 39.54802 | 39959 ft | 414 kts | 280° |
| 2026-05-03 22:10 | 31.45479 | 39.48503 | 39960 ft | 414 kts | 280° |
| 2026-05-03 22:11 | 31.47534 | 39.42185 | 39987 ft | 414 kts | 280° |
| 2026-05-03 22:11 | 31.49570 | 39.35914 | 39980 ft | 414 kts | 280° |
| 2026-05-03 22:12 | 31.51612 | 39.29609 | 39986 ft | 413 kts | 280° |
| 2026-05-03 22:12 | 31.53650 | 39.23306 | 39991 ft | 413 kts | 280° |
| 2026-05-03 22:13 | 31.55687 | 39.16985 | 39989 ft | 413 kts | 280° |
| 2026-05-03 22:13 | 31.57723 | 39.10658 | 39988 ft | 414 kts | 280° |
| 2026-05-03 22:14 | 31.59757 | 39.04342 | 39987 ft | 413 kts | 280° |
| 2026-05-03 22:14 | 31.61772 | 38.98056 | 39981 ft | 414 kts | 280° |
| 2026-05-03 22:15 | 31.63799 | 38.91722 | 39986 ft | 414 kts | 281° |
| 2026-05-03 22:15 | 31.65824 | 38.85379 | 39979 ft | 415 kts | 280° |
| 2026-05-03 22:16 | 31.67698 | 38.79033 | 39992 ft | 408 kts | 275° |
| 2026-05-03 22:16 | 31.68493 | 38.72544 | 39995 ft | 396 kts | 264° |
| 2026-05-03 22:17 | 31.68142 | 38.66174 | 39992 ft | 388 kts | 255° |
| 2026-05-03 22:17 | 31.66986 | 38.60003 | 39992 ft | 387 kts | 253° |
| 2026-05-03 22:18 | 31.65829 | 38.53844 | 39989 ft | 387 kts | 253° |
| 2026-05-03 22:18 | 31.65779 | 38.53583 | 39985 ft | 387 kts | 253° |
| 2026-05-03 22:28 | 31.65579 | 38.52517 | 39991 ft | 390 kts | 255° |
| 2026-05-03 22:29 | 31.64976 | 38.47177 | 39884 ft | 393 kts | 258° |
| 2026-05-03 22:29 | 31.64659 | 38.44038 | 39635 ft | 384 kts | 257° |
| 2026-05-03 22:29 | 31.64348 | 38.40962 | 39383 ft | 377 kts | 257° |
| 2026-05-03 22:29 | 31.64033 | 38.37893 | 39144 ft | 379 kts | 257° |
| 2026-05-03 22:30 | 31.63715 | 38.34821 | 38891 ft | 381 kts | 257° |
| 2026-05-03 22:30 | 31.63395 | 38.31721 | 38632 ft | 381 kts | 257° |
| 2026-05-03 22:30 | 31.63079 | 38.28642 | 38106 ft | 382 kts | 257° |
| 2026-05-03 22:30 | 31.62756 | 38.25526 | 37141 ft | 387 kts | 257° |
| 2026-05-03 22:31 | 31.62426 | 38.22375 | 36224 ft | 392 kts | 257° |
| 2026-05-03 22:31 | 31.62095 | 38.19204 | 35605 ft | 388 kts | 258° |
| 2026-05-03 22:31 | 31.61776 | 38.16113 | 34917 ft | 386 kts | 258° |
| 2026-05-03 22:31 | 31.61451 | 38.12990 | 34156 ft | 387 kts | 258° |
| 2026-05-03 22:32 | 31.61123 | 38.09864 | 33693 ft | 384 kts | 258° |
| 2026-05-03 22:32 | 31.60797 | 38.06762 | 33206 ft | 384 kts | 258° |
| 2026-05-03 22:32 | 31.60471 | 38.03661 | 32698 ft | 379 kts | 257° |
| 2026-05-03 22:32 | 31.60153 | 38.00616 | 32214 ft | 374 kts | 257° |
| 2026-05-03 22:33 | 31.59836 | 37.97605 | 31729 ft | 368 kts | 257° |
| 2026-05-03 22:33 | 31.59524 | 37.94645 | 31250 ft | 362 kts | 257° |
| 2026-05-03 22:33 | 31.59217 | 37.91749 | 30803 ft | 356 kts | 257° |
| 2026-05-03 22:33 | 31.58913 | 37.88889 | 30345 ft | 349 kts | 257° |
| 2026-05-03 22:34 | 31.58614 | 37.86090 | 29887 ft | 344 kts | 257° |
| 2026-05-03 22:34 | 31.58318 | 37.83321 | 29450 ft | 339 kts | 257° |
| 2026-05-03 22:34 | 31.58030 | 37.80637 | 29023 ft | 333 kts | 257° |
| 2026-05-03 22:34 | 31.57739 | 37.77928 | 28592 ft | 328 kts | 257° |
| 2026-05-03 22:35 | 31.57455 | 37.75297 | 28166 ft | 325 kts | 257° |
| 2026-05-03 22:35 | 31.57172 | 37.72683 | 27726 ft | 323 kts | 257° |
| 2026-05-03 22:35 | 31.56892 | 37.70094 | 27326 ft | 322 kts | 257° |
| 2026-05-03 22:35 | 31.56607 | 37.67477 | 26899 ft | 323 kts | 257° |
| 2026-05-03 22:36 | 31.56325 | 37.64877 | 26467 ft | 322 kts | 257° |
| 2026-05-03 22:36 | 31.56044 | 37.62287 | 26033 ft | 320 kts | 257° |
| 2026-05-03 22:36 | 31.55762 | 37.59693 | 25604 ft | 318 kts | 257° |
| 2026-05-03 22:36 | 31.55485 | 37.57150 | 25195 ft | 316 kts | 258° |
| 2026-05-03 22:37 | 31.55204 | 37.54590 | 24772 ft | 316 kts | 258° |
| 2026-05-03 22:37 | 31.54925 | 37.52041 | 24347 ft | 316 kts | 258° |
| 2026-05-03 22:37 | 31.54645 | 37.49485 | 23920 ft | 314 kts | 258° |
| 2026-05-03 22:37 | 31.54368 | 37.46960 | 23493 ft | 312 kts | 258° |
| 2026-05-03 22:38 | 31.54095 | 37.44476 | 23076 ft | 310 kts | 258° |
| 2026-05-03 22:38 | 31.53820 | 37.41974 | 22668 ft | 310 kts | 258° |
| 2026-05-03 22:38 | 31.53544 | 37.39465 | 22207 ft | 309 kts | 258° |
| 2026-05-03 22:38 | 31.53266 | 37.36981 | 21795 ft | 307 kts | 258° |
| 2026-05-03 22:39 | 31.52992 | 37.34512 | 21367 ft | 306 kts | 258° |
| 2026-05-03 22:39 | 31.52715 | 37.32034 | 20945 ft | 306 kts | 258° |
| 2026-05-03 22:39 | 31.52442 | 37.29575 | 20515 ft | 304 kts | 258° |
| 2026-05-03 22:39 | 31.52169 | 37.27119 | 20089 ft | 303 kts | 258° |
| 2026-05-03 22:40 | 31.51900 | 37.24708 | 19671 ft | 301 kts | 258° |
| 2026-05-03 22:40 | 31.51629 | 37.22282 | 19256 ft | 301 kts | 258° |
| 2026-05-03 22:40 | 31.51357 | 37.19851 | 18828 ft | 300 kts | 258° |
| 2026-05-03 22:40 | 31.51086 | 37.17439 | 18399 ft | 298 kts | 258° |
| 2026-05-03 22:41 | 31.50816 | 37.15034 | 17976 ft | 296 kts | 258° |
| 2026-05-03 22:41 | 31.50548 | 37.12648 | 17555 ft | 295 kts | 258° |
| 2026-05-03 22:41 | 31.50281 | 37.10276 | 17148 ft | 293 kts | 258° |
| 2026-05-03 22:41 | 31.50013 | 37.07904 | 16736 ft | 292 kts | 258° |
| 2026-05-03 22:42 | 31.49751 | 37.05580 | 16313 ft | 291 kts | 258° |
| 2026-05-03 22:42 | 31.49554 | 37.03225 | 15897 ft | 293 kts | 263° |
| 2026-05-03 22:42 | 31.49676 | 37.00824 | 15473 ft | 297 kts | 271° |
| 2026-05-03 22:42 | 31.50131 | 36.98453 | 15057 ft | 301 kts | 279° |
| 2026-05-03 22:43 | 31.50826 | 36.96138 | 14615 ft | 301 kts | 281° |
| 2026-05-03 22:43 | 31.51511 | 36.93821 | 14186 ft | 299 kts | 281° |
| 2026-05-03 22:43 | 31.52175 | 36.91522 | 13756 ft | 298 kts | 281° |
| 2026-05-03 22:43 | 31.52841 | 36.89214 | 13333 ft | 297 kts | 281° |
| 2026-05-03 22:44 | 31.53500 | 36.86934 | 12913 ft | 295 kts | 281° |
| 2026-05-03 22:44 | 31.54156 | 36.84669 | 12494 ft | 293 kts | 281° |
| 2026-05-03 22:44 | 31.54811 | 36.82398 | 12083 ft | 294 kts | 281° |
| 2026-05-03 22:44 | 31.55462 | 36.80142 | 11660 ft | 292 kts | 281° |
| 2026-05-03 22:45 | 31.56103 | 36.77920 | 11251 ft | 290 kts | 281° |
| 2026-05-03 22:45 | 31.56746 | 36.75688 | 10836 ft | 290 kts | 282° |
| 2026-05-03 22:45 | 31.57391 | 36.73459 | 10439 ft | 290 kts | 282° |
| 2026-05-03 22:45 | 31.58030 | 36.71271 | 10285 ft | 277 kts | 283° |
| 2026-05-03 22:46 | 31.58645 | 36.69178 | 10116 ft | 266 kts | 282° |
| 2026-05-03 22:46 | 31.59233 | 36.67133 | 9871 ft | 264 kts | 283° |
| 2026-05-03 22:46 | 31.59822 | 36.65091 | 9756 ft | 264 kts | 283° |
| 2026-05-03 22:46 | 31.60409 | 36.63052 | 9631 ft | 265 kts | 283° |
| 2026-05-03 22:47 | 31.60992 | 36.61035 | 9449 ft | 265 kts | 283° |
| 2026-05-03 22:47 | 31.61585 | 36.58992 | 9186 ft | 265 kts | 283° |
| 2026-05-03 22:47 | 31.62173 | 36.56970 | 8912 ft | 258 kts | 284° |
| 2026-05-03 22:47 | 31.62741 | 36.55006 | 8637 ft | 252 kts | 284° |
| 2026-05-03 22:48 | 31.63295 | 36.53087 | 8370 ft | 246 kts | 284° |
| 2026-05-03 22:48 | 31.63842 | 36.51194 | 8104 ft | 242 kts | 284° |
| 2026-05-03 22:48 | 31.64393 | 36.49348 | 7834 ft | 239 kts | 288° |
| 2026-05-03 22:48 | 31.65179 | 36.47633 | 7588 ft | 239 kts | 299° |
| 2026-05-03 22:49 | 31.66249 | 36.46132 | 7396 ft | 239 kts | 308° |
| 2026-05-03 22:49 | 31.67357 | 36.44770 | 7323 ft | 227 kts | 307° |
| 2026-05-03 22:49 | 31.68408 | 36.43439 | 7230 ft | 218 kts | 306° |
| 2026-05-03 22:49 | 31.69416 | 36.42146 | 7113 ft | 213 kts | 306° |
| 2026-05-03 22:50 | 31.70428 | 36.40843 | 6861 ft | 215 kts | 306° |
| 2026-05-03 22:50 | 31.71434 | 36.39556 | 6631 ft | 213 kts | 307° |
| 2026-05-03 22:50 | 31.72428 | 36.38286 | 6412 ft | 211 kts | 307° |
| 2026-05-03 22:50 | 31.73421 | 36.37020 | 6203 ft | 209 kts | 307° |
| 2026-05-03 22:51 | 31.74391 | 36.35788 | 5995 ft | 207 kts | 307° |
| 2026-05-03 22:51 | 31.75367 | 36.34541 | 5782 ft | 210 kts | 307° |
| 2026-05-03 22:51 | 31.76099 | 36.33099 | 5581 ft | 205 kts | 284° |
| 2026-05-03 22:51 | 31.76226 | 36.31441 | 5353 ft | 205 kts | 266° |
| 2026-05-03 22:52 | 31.76046 | 36.29769 | 5141 ft | 209 kts | 261° |
| 2026-05-03 22:52 | 31.75789 | 36.28098 | 4931 ft | 209 kts | 261° |
| 2026-05-03 22:52 | 31.75544 | 36.26404 | 4702 ft | 209 kts | 261° |
| 2026-05-03 22:52 | 31.75297 | 36.24723 | 4492 ft | 211 kts | 261° |
| 2026-05-03 22:53 | 31.75050 | 36.23029 | 4264 ft | 211 kts | 261° |
| 2026-05-03 22:53 | 31.74804 | 36.21348 | 4155 ft | 204 kts | 261° |
| 2026-05-03 22:53 | 31.74568 | 36.19711 | 4155 ft | 208 kts | 261° |
| 2026-05-03 22:53 | 31.74324 | 36.18030 | 4200 ft | 209 kts | 261° |
| 2026-05-03 22:54 | 31.74084 | 36.16359 | 4184 ft | 208 kts | 261° |
| 2026-05-03 22:54 | 31.73842 | 36.14723 | 4084 ft | 192 kts | 261° |
| 2026-05-03 22:54 | 31.73635 | 36.13275 | 3988 ft | 171 kts | 261° |
| 2026-05-03 22:54 | 31.73440 | 36.11951 | 4017 ft | 161 kts | 261° |
| 2026-05-03 22:55 | 31.73258 | 36.10664 | 3895 ft | 160 kts | 261° |
| 2026-05-03 22:55 | 31.73069 | 36.09393 | 3672 ft | 151 kts | 261° |
| 2026-05-03 22:55 | 31.72906 | 36.08238 | 3472 ft | 137 kts | 260° |
| 2026-05-03 22:55 | 31.72753 | 36.07162 | 3279 ft | 133 kts | 260° |
| 2026-05-03 22:56 | 31.72592 | 36.06094 | 3109 ft | 132 kts | 260° |
| 2026-05-03 22:56 | 31.72442 | 36.05032 | 2983 ft | 132 kts | 262° |
| 2026-05-03 22:56 | 31.72293 | 36.03964 | 2827 ft | 132 kts | 261° |
| 2026-05-03 22:56 | 31.72141 | 36.02896 | 2623 ft | 133 kts | 259° |
| 2026-05-03 22:57 | 31.71986 | 36.01835 | 2478 ft | 134 kts | 260° |
| 2026-05-03 22:57 | 31.71831 | 36.00771 | 2420 ft | 116 kts | 261° |
| 2026-05-03 22:57 | 31.71724 | 36.00009 | 2423 ft | 79 kts | 261° |
| 2026-05-03 22:57 | 31.71665 | 35.99530 | 2421 ft | 37 kts | 271° |
| 2026-05-03 22:58 | 31.71718 | 35.99268 | 2420 ft | 30 kts | 290° |
| 2026-05-03 22:58 | 31.71781 | 35.99071 | 2422 ft | 23 kts | 290° |
| 2026-05-03 22:58 | 31.71841 | 35.98945 | 2423 ft | 15 kts | 329° |
| 2026-05-03 22:58 | 31.71909 | 35.98918 | 2421 ft | 10 kts | 349° |
| 2026-05-03 22:59 | 31.71978 | 35.98930 | 2421 ft | 10 kts | 44° |
| 2026-05-03 22:59 | 31.72012 | 35.99015 | 2421 ft | 11 kts | 79° |
| 2026-05-03 22:59 | 31.72017 | 35.99045 | 2421 ft | 4 kts | 78° |
| 2026-05-03 22:59 | 31.72026 | 35.99094 | 2423 ft | 7 kts | 76° |
| 2026-05-03 23:00 | 31.72030 | 35.99112 | 2420 ft | 1 kts | 61° |
| 2026-05-03 23:00 | 31.72034 | 35.99119 | 2420 ft | 1 kts | 33° |
| 2026-05-03 23:00 | 31.72043 | 35.99123 | 2421 ft | 1 kts | 4° |
| 2026-05-03 23:00 | 31.72059 | 35.99119 | 2422 ft | 4 kts | 347° |
| 2026-05-03 23:01 | 31.72083 | 35.99113 | 2423 ft | 0 kts | 349° |